createdAt,value
2019-03-17T00:00:04.389Z,29.067
2019-03-17T00:00:13.890Z,27.867
2019-03-17T00:00:20.906Z,26.696
2019-03-17T00:00:27.226Z,25.554
2019-03-17T00:00:34.839Z,23.356
2019-03-17T00:00:41.976Z,22.3
2019-03-17T00:00:48.673Z,21.272
2019-03-17T00:00:55.109Z,20.271
2019-03-17T00:01:03.267Z,19.299
2019-03-17T00:01:12.837Z,18.353
2019-03-17T00:01:19.628Z,18.353
2019-03-17T00:01:26.229Z,17.435
2019-03-17T00:01:34.549Z,17.435
2019-03-17T00:01:40.977Z,16.543
2019-03-17T00:01:58.431Z,16.543
2019-03-17T00:02:05.345Z,16.543
2019-03-17T00:02:11.850Z,15.678
2019-03-17T00:02:18.416Z,15.678
2019-03-17T00:02:25.004Z,14.84
2019-03-17T00:02:34.344Z,14.84
2019-03-17T00:02:41.392Z,14.027
2019-03-17T00:02:49.404Z,14.027
2019-03-17T00:02:56.141Z,14.84
2019-03-17T00:03:02.682Z,14.84
2019-03-17T00:03:09.464Z,14.84
2019-03-17T00:03:15.843Z,14.84
2019-03-17T00:03:23.479Z,14.84
2019-03-17T00:03:30.847Z,14.027
2019-03-17T00:03:40.444Z,14.027
2019-03-17T00:03:47.131Z,14.027
2019-03-17T00:03:54.514Z,14.027
2019-03-17T00:04:02.173Z,14.027
2019-03-17T00:04:11.361Z,13.241
2019-03-17T00:04:32.424Z,12.48
2019-03-17T00:04:38.912Z,11.744
2019-03-17T00:04:45.476Z,11.744
2019-03-17T00:04:52.027Z,11.744
2019-03-17T00:04:58.681Z,0.032
2019-03-17T00:05:05.239Z,12.48
2019-03-17T00:05:11.830Z,0.032
2019-03-17T00:05:18.377Z,12.48
2019-03-17T00:05:24.901Z,11.744
2019-03-17T00:05:31.757Z,11.744
2019-03-17T00:05:38.202Z,11.744
2019-03-17T00:05:45.271Z,11.744
2019-03-17T00:05:51.217Z,11.744
2019-03-17T00:05:58.559Z,11.744
2019-03-17T00:06:04.362Z,11.744
2019-03-17T00:06:14.110Z,11.034
2019-03-17T00:06:20.648Z,10.348
2019-03-17T00:06:27.209Z,11.034
2019-03-17T00:06:33.767Z,11.034
2019-03-17T00:06:40.560Z,11.034
2019-03-17T00:06:46.906Z,10.348
2019-03-17T00:06:53.477Z,10.348
2019-03-17T00:07:00.098Z,10.348
2019-03-17T00:07:06.611Z,10.348
2019-03-17T00:07:13.212Z,10.348
2019-03-17T00:07:19.862Z,10.348
2019-03-17T00:07:26.367Z,9.688
2019-03-17T00:07:33.014Z,9.688
2019-03-17T00:07:39.507Z,9.051
2019-03-17T00:07:46.050Z,9.688
2019-03-17T00:07:52.627Z,9.688
2019-03-17T00:07:59.290Z,9.688
2019-03-17T00:08:05.749Z,9.688
2019-03-17T00:08:12.499Z,10.348
2019-03-17T00:08:18.903Z,9.688
2019-03-17T00:08:25.485Z,9.688
2019-03-17T00:08:32.006Z,10.348
2019-03-17T00:08:38.629Z,9.688
2019-03-17T00:08:45.096Z,9.688
2019-03-17T00:08:51.711Z,9.688
2019-03-17T00:08:58.314Z,10.348
2019-03-17T00:09:04.836Z,9.688
2019-03-17T00:09:12.548Z,9.688
2019-03-17T00:09:19.649Z,9.051
2019-03-17T00:09:27.334Z,9.051
2019-03-17T00:09:34.548Z,8.439
2019-03-17T00:09:40.926Z,8.439
2019-03-17T00:09:47.508Z,8.439
2019-03-17T00:09:54.466Z,8.439
2019-03-17T00:10:01.159Z,7.851
2019-03-17T00:10:15.583Z,8.439
2019-03-17T00:10:23.402Z,0.023
2019-03-17T00:10:29.993Z,8.439
2019-03-17T00:10:36.564Z,8.439
2019-03-17T00:10:43.128Z,9.051
2019-03-17T00:10:53.190Z,9.051
2019-03-17T00:10:59.532Z,9.051
2019-03-17T00:11:06.063Z,9.051
2019-03-17T00:11:13.350Z,9.051
2019-03-17T00:11:19.314Z,9.688
2019-03-17T00:11:25.801Z,9.051
2019-03-17T00:11:35.668Z,8.439
2019-03-17T00:11:42.129Z,8.439
2019-03-17T00:11:48.737Z,9.051
2019-03-17T00:11:55.427Z,9.051
2019-03-17T00:12:01.885Z,8.439
2019-03-17T00:12:08.344Z,8.439
2019-03-17T00:12:14.899Z,8.439
2019-03-17T00:12:21.433Z,8.439
2019-03-17T00:12:28.108Z,8.439
2019-03-17T00:12:37.751Z,7.851
2019-03-17T00:12:44.363Z,7.851
2019-03-17T00:12:50.997Z,7.851
2019-03-17T00:12:57.509Z,8.439
2019-03-17T00:13:04.044Z,7.851
2019-03-17T00:13:10.715Z,7.851
2019-03-17T00:13:18.375Z,7.286
2019-03-17T00:13:25.338Z,7.286
2019-03-17T00:13:31.893Z,7.286
2019-03-17T00:13:38.430Z,7.286
2019-03-17T00:13:45.047Z,7.286
2019-03-17T00:13:51.570Z,7.286
2019-03-17T00:13:58.120Z,7.286
2019-03-17T00:14:04.806Z,7.286
2019-03-17T00:14:11.480Z,7.286
2019-03-17T00:14:18.911Z,7.286
2019-03-17T00:14:26.048Z,7.851
2019-03-17T00:14:32.528Z,7.851
2019-03-17T00:14:39.104Z,7.851
2019-03-17T00:14:45.701Z,7.851
2019-03-17T00:15:12.336Z,7.851
2019-03-17T00:15:18.010Z,7.851
2019-03-17T00:15:24.645Z,8.439
2019-03-17T00:15:31.163Z,7.851
2019-03-17T00:15:37.751Z,8.439
2019-03-17T00:15:44.293Z,8.439
2019-03-17T00:15:51.036Z,8.439
2019-03-17T00:15:57.572Z,8.439
2019-03-17T00:16:03.983Z,8.439
2019-03-17T00:16:10.549Z,8.439
2019-03-17T00:16:17.100Z,8.439
2019-03-17T00:16:26.866Z,8.439
2019-03-17T00:16:33.545Z,9.051
2019-03-17T00:16:39.977Z,9.051
2019-03-17T00:16:46.567Z,9.051
2019-03-17T00:16:53.119Z,9.051
2019-03-17T00:16:59.713Z,8.439
2019-03-17T00:17:06.423Z,8.439
2019-03-17T00:17:17.190Z,7.851
2019-03-17T00:17:25.668Z,7.851
2019-03-17T00:17:32.407Z,7.851
2019-03-17T00:17:42.507Z,7.851
2019-03-17T00:17:48.935Z,7.851
2019-03-17T00:17:58.344Z,8.439
2019-03-17T00:18:05.196Z,8.439
2019-03-17T00:18:11.682Z,7.851
2019-03-17T00:18:18.222Z,7.851
2019-03-17T00:18:24.928Z,7.286
2019-03-17T00:18:34.055Z,7.286
2019-03-17T00:18:41.195Z,7.286
2019-03-17T00:18:47.768Z,7.851
2019-03-17T00:18:54.306Z,7.851
2019-03-17T00:19:00.981Z,7.851
2019-03-17T00:19:07.746Z,8.439
2019-03-17T00:19:13.997Z,8.439
2019-03-17T00:19:20.594Z,8.439
2019-03-17T00:19:28.416Z,8.439
2019-03-17T00:19:35.383Z,8.439
2019-03-17T00:19:42.016Z,7.851
2019-03-17T00:19:48.565Z,7.851
2019-03-17T00:19:55.097Z,7.851
2019-03-17T00:20:02.674Z,7.286
2019-03-17T00:20:11.238Z,7.851
2019-03-17T00:20:20.500Z,7.286
2019-03-17T00:20:26.183Z,7.286
2019-03-17T00:20:32.757Z,7.286
2019-03-17T00:20:39.546Z,7.286
2019-03-17T00:20:45.899Z,7.286
2019-03-17T00:20:55.077Z,7.286
2019-03-17T00:21:02.374Z,7.286
2019-03-17T00:21:08.749Z,6.745
2019-03-17T00:21:15.346Z,6.745
2019-03-17T00:21:22.271Z,6.745
2019-03-17T00:21:28.688Z,6.227
2019-03-17T00:21:35.123Z,6.745
2019-03-17T00:21:41.594Z,6.745
2019-03-17T00:21:49.480Z,6.745
2019-03-17T00:21:56.314Z,6.227
2019-03-17T00:22:02.947Z,6.227
2019-03-17T00:22:11.319Z,6.227
2019-03-17T00:22:17.818Z,6.227
2019-03-17T00:22:27.592Z,5.732
2019-03-17T00:22:41.160Z,6.227
2019-03-17T00:22:54.493Z,6.745
2019-03-17T00:23:05.188Z,7.286
2019-03-17T00:23:15.514Z,7.286
2019-03-17T00:23:26.576Z,7.286
2019-03-17T00:23:32.494Z,7.286
2019-03-17T00:23:39.191Z,7.286
2019-03-17T00:23:45.465Z,7.286
2019-03-17T00:23:52.015Z,7.286
2019-03-17T00:23:58.577Z,7.286
2019-03-17T00:24:05.583Z,7.286
2019-03-17T00:24:11.793Z,7.286
2019-03-17T00:24:18.297Z,7.286
2019-03-17T00:24:25.174Z,6.745
2019-03-17T00:24:31.457Z,6.745
2019-03-17T00:24:38.096Z,6.745
2019-03-17T00:24:44.696Z,6.745
2019-03-17T00:24:51.190Z,6.745
2019-03-17T00:25:10.870Z,6.227
2019-03-17T00:25:17.090Z,6.227
2019-03-17T00:25:23.947Z,6.227
2019-03-17T00:25:30.253Z,6.745
2019-03-17T00:25:37.799Z,6.745
2019-03-17T00:25:44.972Z,6.227
2019-03-17T00:25:51.587Z,6.745
2019-03-17T00:25:58.096Z,6.745
2019-03-17T00:26:04.684Z,7.286
2019-03-17T00:26:11.359Z,7.286
2019-03-17T00:26:17.833Z,7.286
2019-03-17T00:26:26.251Z,7.286
2019-03-17T00:26:34.693Z,7.286
2019-03-17T00:26:40.731Z,7.851
2019-03-17T00:26:47.298Z,7.851
2019-03-17T00:26:53.907Z,7.851
2019-03-17T00:27:00.455Z,8.439
2019-03-17T00:27:07.022Z,7.851
2019-03-17T00:27:13.632Z,8.439
2019-03-17T00:27:20.234Z,8.439
2019-03-17T00:27:26.743Z,8.439
2019-03-17T00:27:34.328Z,8.439
2019-03-17T00:27:41.586Z,8.439
2019-03-17T00:27:48.122Z,8.439
2019-03-17T00:27:54.633Z,8.439
2019-03-17T00:28:01.269Z,8.439
2019-03-17T00:28:07.841Z,8.439
2019-03-17T00:28:14.312Z,8.439
2019-03-17T00:28:21.065Z,8.439
2019-03-17T00:28:28.696Z,8.439
2019-03-17T00:28:35.733Z,9.051
2019-03-17T00:28:44.924Z,9.051
2019-03-17T00:28:52.010Z,9.051
2019-03-17T00:28:58.639Z,9.051
2019-03-17T00:29:05.387Z,8.439
2019-03-17T00:29:11.790Z,8.439
2019-03-17T00:29:19.325Z,8.439
2019-03-17T00:29:26.582Z,7.851
2019-03-17T00:29:33.542Z,8.439
2019-03-17T00:29:39.701Z,8.439
2019-03-17T00:29:46.315Z,8.439
2019-03-17T00:29:52.842Z,8.439
2019-03-17T00:29:59.337Z,7.851
2019-03-17T00:30:05.914Z,8.439
2019-03-17T00:30:15.786Z,7.851
2019-03-17T00:30:22.221Z,8.439
2019-03-17T00:30:28.843Z,7.851
2019-03-17T00:30:35.543Z,8.439
2019-03-17T00:30:45.415Z,8.439
2019-03-17T00:30:51.767Z,8.439
2019-03-17T00:30:58.362Z,8.439
2019-03-17T00:31:04.849Z,7.851
2019-03-17T00:31:25.079Z,8.439
2019-03-17T00:31:30.788Z,8.439
2019-03-17T00:31:38.740Z,8.439
2019-03-17T00:31:45.551Z,8.439
2019-03-17T00:31:52.837Z,8.439
2019-03-17T00:31:58.840Z,7.851
2019-03-17T00:32:05.277Z,7.851
2019-03-17T00:32:11.877Z,7.851
2019-03-17T00:32:18.528Z,7.851
2019-03-17T00:32:24.986Z,7.851
2019-03-17T00:32:31.558Z,8.439
2019-03-17T00:32:38.217Z,8.439
2019-03-17T00:32:44.851Z,8.439
2019-03-17T00:32:51.436Z,8.439
2019-03-17T00:32:57.904Z,9.051
2019-03-17T00:33:04.399Z,8.439
2019-03-17T00:33:10.981Z,8.439
2019-03-17T00:33:17.512Z,8.439
2019-03-17T00:33:24.056Z,8.439
2019-03-17T00:33:30.896Z,7.851
2019-03-17T00:33:38.313Z,7.851
2019-03-17T00:33:45.380Z,7.851
2019-03-17T00:33:51.953Z,7.851
2019-03-17T00:33:58.653Z,7.851
2019-03-17T00:34:05.378Z,7.851
2019-03-17T00:34:11.718Z,7.851
2019-03-17T00:34:18.351Z,7.851
2019-03-17T00:34:24.852Z,7.851
2019-03-17T00:34:45.021Z,7.851
2019-03-17T00:34:52.415Z,8.439
2019-03-17T00:34:59.003Z,8.439
2019-03-17T00:35:05.583Z,8.439
2019-03-17T00:35:15.107Z,8.439
2019-03-17T00:35:21.856Z,8.439
2019-03-17T00:35:28.374Z,8.439
2019-03-17T00:35:35.140Z,9.051
2019-03-17T00:35:41.526Z,9.051
2019-03-17T00:35:48.074Z,8.439
2019-03-17T00:35:55.877Z,8.439
2019-03-17T00:36:02.817Z,8.439
2019-03-17T00:36:09.662Z,8.439
2019-03-17T00:36:15.953Z,8.439
2019-03-17T00:36:22.531Z,7.851
2019-03-17T00:36:29.068Z,8.439
2019-03-17T00:36:35.646Z,8.439
2019-03-17T00:36:42.203Z,8.439
2019-03-17T00:36:48.795Z,8.439
2019-03-17T00:36:55.345Z,7.851
2019-03-17T00:37:01.981Z,8.439
2019-03-17T00:37:08.484Z,8.439
2019-03-17T00:37:15.081Z,8.439
2019-03-17T00:37:21.640Z,8.439
2019-03-17T00:37:28.228Z,8.439
2019-03-17T00:37:34.772Z,7.851
2019-03-17T00:37:41.323Z,7.851
2019-03-17T00:37:47.888Z,7.851
2019-03-17T00:37:54.448Z,7.851
2019-03-17T00:38:02.956Z,7.851
2019-03-17T00:38:09.181Z,7.851
2019-03-17T00:38:16.796Z,7.286
2019-03-17T00:38:23.932Z,7.286
2019-03-17T00:38:30.558Z,7.286
2019-03-17T00:38:37.095Z,7.286
2019-03-17T00:38:43.667Z,7.286
2019-03-17T00:38:50.259Z,7.286
2019-03-17T00:38:56.833Z,7.286
2019-03-17T00:39:04.479Z,7.286
2019-03-17T00:39:11.527Z,7.286
2019-03-17T00:39:18.050Z,7.851
2019-03-17T00:39:24.663Z,7.851
2019-03-17T00:39:31.213Z,7.851
2019-03-17T00:39:37.777Z,7.851
2019-03-17T00:39:44.360Z,7.851
2019-03-17T00:39:50.951Z,7.851
2019-03-17T00:39:57.569Z,7.851
2019-03-17T00:40:04.113Z,7.851
2019-03-17T00:40:13.662Z,7.851
2019-03-17T00:40:20.430Z,7.851
2019-03-17T00:40:26.998Z,7.851
2019-03-17T00:40:33.588Z,7.851
2019-03-17T00:40:40.294Z,7.286
2019-03-17T00:40:46.740Z,7.851
2019-03-17T00:40:53.531Z,7.851
2019-03-17T00:40:59.871Z,7.851
2019-03-17T00:41:08.067Z,7.851
2019-03-17T00:41:17.524Z,8.439
2019-03-17T00:41:24.400Z,7.851
2019-03-17T00:41:32.260Z,7.851
2019-03-17T00:41:39.083Z,8.439
2019-03-17T00:41:45.813Z,7.851
2019-03-17T00:41:52.249Z,7.851
2019-03-17T00:41:58.775Z,8.439
2019-03-17T00:42:05.382Z,7.851
2019-03-17T00:42:11.975Z,7.851
2019-03-17T00:42:18.586Z,7.851
2019-03-17T00:42:26.694Z,7.851
2019-03-17T00:42:33.672Z,7.851
2019-03-17T00:42:39.788Z,7.851
2019-03-17T00:42:46.362Z,8.439
2019-03-17T00:42:52.937Z,8.439
2019-03-17T00:42:59.548Z,8.439
2019-03-17T00:43:06.101Z,8.439
2019-03-17T00:43:12.729Z,8.439
2019-03-17T00:43:19.317Z,9.051
2019-03-17T00:43:25.807Z,9.051
2019-03-17T00:43:32.370Z,8.439
2019-03-17T00:43:39.010Z,8.439
2019-03-17T00:43:45.528Z,8.439
2019-03-17T00:43:52.109Z,8.439
2019-03-17T00:43:58.659Z,8.439
2019-03-17T00:44:05.198Z,9.051
2019-03-17T00:44:11.817Z,8.439
2019-03-17T00:44:18.600Z,8.439
2019-03-17T00:44:24.944Z,8.439
2019-03-17T00:44:31.637Z,8.439
2019-03-17T00:44:38.114Z,8.439
2019-03-17T00:44:44.693Z,8.439
2019-03-17T00:44:51.310Z,9.051
2019-03-17T00:44:57.807Z,9.051
2019-03-17T00:45:04.379Z,9.051
2019-03-17T00:45:14.040Z,8.439
2019-03-17T00:45:20.759Z,8.439
2019-03-17T00:45:27.310Z,8.439
2019-03-17T00:45:33.865Z,7.851
2019-03-17T00:45:40.456Z,8.439
2019-03-17T00:45:48.184Z,8.439
2019-03-17T00:45:55.207Z,7.851
2019-03-17T00:46:01.879Z,7.851
2019-03-17T00:46:08.340Z,8.439
2019-03-17T00:46:14.910Z,8.439
2019-03-17T00:46:21.533Z,8.439
2019-03-17T00:46:28.013Z,8.439
2019-03-17T00:46:34.585Z,9.051
2019-03-17T00:46:41.260Z,9.051
2019-03-17T00:46:47.813Z,9.051
2019-03-17T00:46:54.291Z,9.051
2019-03-17T00:47:00.798Z,9.051
2019-03-17T00:47:07.437Z,8.439
2019-03-17T00:47:17.105Z,8.439
2019-03-17T00:47:23.678Z,8.439
2019-03-17T00:47:30.256Z,8.439
2019-03-17T00:47:36.831Z,8.439
2019-03-17T00:47:43.355Z,8.439
2019-03-17T00:47:49.921Z,8.439
2019-03-17T00:47:56.638Z,8.439
2019-03-17T00:48:03.496Z,8.439
2019-03-17T00:48:09.731Z,8.439
2019-03-17T00:48:16.352Z,7.851
2019-03-17T00:48:25.998Z,7.851
2019-03-17T00:48:32.514Z,7.286
2019-03-17T00:48:39.070Z,7.286
2019-03-17T00:48:45.624Z,7.851
2019-03-17T00:48:52.203Z,7.851
2019-03-17T00:48:58.856Z,7.851
2019-03-17T00:49:05.554Z,7.851
2019-03-17T00:49:12.013Z,7.851
2019-03-17T00:49:18.517Z,7.851
2019-03-17T00:49:25.220Z,7.851
2019-03-17T00:49:31.737Z,7.851
2019-03-17T00:49:38.257Z,7.851
2019-03-17T00:49:44.850Z,8.439
2019-03-17T00:49:51.385Z,8.439
2019-03-17T00:49:57.968Z,8.439
2019-03-17T00:50:04.494Z,8.439
2019-03-17T00:50:14.104Z,8.439
2019-03-17T00:50:20.969Z,9.051
2019-03-17T00:50:27.618Z,8.439
2019-03-17T00:50:34.043Z,8.439
2019-03-17T00:50:40.646Z,8.439
2019-03-17T00:50:49.646Z,8.439
2019-03-17T00:50:55.349Z,8.439
2019-03-17T00:51:01.912Z,8.439
2019-03-17T00:51:08.523Z,8.439
2019-03-17T00:51:15.068Z,8.439
2019-03-17T00:51:21.654Z,8.439
2019-03-17T00:51:28.462Z,9.051
2019-03-17T00:51:34.841Z,9.051
2019-03-17T00:51:42.737Z,9.051
2019-03-17T00:51:52.083Z,9.051
2019-03-17T00:51:59.372Z,9.051
2019-03-17T00:52:06.010Z,9.051
2019-03-17T00:52:12.805Z,8.439
2019-03-17T00:52:21.943Z,8.439
2019-03-17T00:52:29.874Z,8.439
2019-03-17T00:52:37.199Z,8.439
2019-03-17T00:52:43.605Z,9.051
2019-03-17T00:52:50.244Z,9.051
2019-03-17T00:52:56.701Z,9.051
2019-03-17T00:53:03.266Z,8.439
2019-03-17T00:53:09.811Z,9.051
2019-03-17T00:53:16.453Z,9.051
2019-03-17T00:53:23.119Z,9.051
2019-03-17T00:53:30.029Z,8.439
2019-03-17T00:53:36.169Z,8.439
2019-03-17T00:53:42.712Z,8.439
2019-03-17T00:53:49.364Z,8.439
2019-03-17T00:53:55.942Z,8.439
2019-03-17T00:54:02.539Z,8.439
2019-03-17T00:54:12.237Z,8.439
2019-03-17T00:54:18.751Z,8.439
2019-03-17T00:54:25.485Z,7.851
2019-03-17T00:54:32.104Z,7.851
2019-03-17T00:54:38.463Z,7.851
2019-03-17T00:54:46.072Z,7.851
2019-03-17T00:54:53.485Z,7.851
2019-03-17T00:54:59.908Z,8.439
2019-03-17T00:55:06.597Z,8.439
2019-03-17T00:55:13.490Z,8.439
2019-03-17T00:55:20.144Z,8.439
2019-03-17T00:55:26.070Z,8.439
2019-03-17T00:55:32.640Z,8.439
2019-03-17T00:55:39.357Z,8.439
2019-03-17T00:55:45.846Z,8.439
2019-03-17T00:55:52.330Z,7.851
2019-03-17T00:55:58.824Z,8.439
2019-03-17T00:56:07.132Z,7.851
2019-03-17T00:56:15.536Z,7.851
2019-03-17T00:56:21.739Z,7.851
2019-03-17T00:56:28.336Z,7.851
2019-03-17T00:56:34.903Z,8.439
2019-03-17T00:56:41.491Z,7.851
2019-03-17T00:56:49.358Z,7.851
2019-03-17T00:56:57.365Z,7.851
2019-03-17T00:57:04.375Z,7.851
2019-03-17T00:57:11.011Z,8.439
2019-03-17T00:57:17.571Z,8.439
2019-03-17T00:57:25.416Z,8.439
2019-03-17T00:57:32.257Z,8.439
2019-03-17T00:57:38.864Z,8.439
2019-03-17T00:57:45.623Z,8.439
2019-03-17T00:57:51.995Z,8.439
2019-03-17T00:58:00.832Z,8.439
2019-03-17T00:58:06.772Z,8.439
2019-03-17T00:58:13.409Z,8.439
2019-03-17T00:58:19.878Z,8.439
2019-03-17T00:58:26.457Z,7.851
2019-03-17T00:58:32.992Z,7.851
2019-03-17T00:58:39.555Z,7.851
2019-03-17T00:58:46.227Z,7.286
2019-03-17T00:58:52.888Z,7.286
2019-03-17T00:59:00.499Z,7.851
2019-03-17T00:59:07.636Z,7.286
2019-03-17T00:59:16.057Z,7.851
2019-03-17T00:59:22.222Z,7.851
2019-03-17T00:59:36.140Z,7.851
2019-03-17T00:59:43.608Z,7.851
2019-03-17T00:59:49.849Z,7.851
2019-03-17T00:59:56.563Z,7.851
2019-03-17T01:00:04.085Z,7.851
2019-03-17T01:00:14.207Z,7.851
2019-03-17T01:00:21.290Z,7.851
2019-03-17T01:00:27.539Z,7.851
2019-03-17T01:00:34.210Z,7.851
2019-03-17T01:00:41.104Z,7.851
2019-03-17T01:00:47.467Z,7.851
2019-03-17T01:00:54.094Z,7.851
2019-03-17T01:01:00.503Z,7.851
2019-03-17T01:01:06.941Z,7.851
2019-03-17T01:01:14.607Z,7.851
2019-03-17T01:01:21.754Z,7.851
2019-03-17T01:01:28.224Z,8.439
2019-03-17T01:01:35.024Z,8.439
2019-03-17T01:01:43.010Z,7.851
2019-03-17T01:01:49.574Z,7.851
2019-03-17T01:01:56.132Z,7.851
2019-03-17T01:02:02.817Z,7.851
2019-03-17T01:02:09.511Z,7.851
2019-03-17T01:02:15.884Z,7.851
2019-03-17T01:02:22.573Z,7.851
2019-03-17T01:02:32.258Z,7.851
2019-03-17T01:02:38.736Z,7.851
2019-03-17T01:02:45.543Z,7.851
2019-03-17T01:02:52.156Z,7.286
2019-03-17T01:02:58.468Z,7.286
2019-03-17T01:03:08.321Z,7.286
2019-03-17T01:03:20.819Z,6.745
2019-03-17T01:03:30.243Z,6.745
2019-03-17T01:03:37.566Z,6.227
2019-03-17T01:03:44.365Z,6.227
2019-03-17T01:03:50.825Z,6.227
2019-03-17T01:03:57.370Z,6.227
2019-03-17T01:04:03.866Z,6.227
2019-03-17T01:04:10.638Z,6.227
2019-03-17T01:04:19.673Z,6.227
2019-03-17T01:04:27.682Z,6.745
2019-03-17T01:04:34.901Z,6.745
2019-03-17T01:04:41.641Z,6.745
2019-03-17T01:04:57.116Z,6.227
2019-03-17T01:05:04.140Z,6.227
2019-03-17T01:05:14.627Z,5.732
2019-03-17T01:05:20.644Z,5.732
2019-03-17T01:05:27.241Z,5.732
2019-03-17T01:05:33.610Z,5.732
2019-03-17T01:05:40.154Z,5.26
2019-03-17T01:05:46.810Z,5.26
2019-03-17T01:05:53.323Z,5.26
2019-03-17T01:06:02.718Z,5.26
2019-03-17T01:06:09.601Z,5.26
2019-03-17T01:06:16.211Z,5.26
2019-03-17T01:06:22.966Z,5.26
2019-03-17T01:06:29.488Z,5.26
2019-03-17T01:06:35.887Z,5.26
2019-03-17T01:06:42.951Z,5.26
2019-03-17T01:06:49.056Z,5.26
2019-03-17T01:06:55.628Z,5.26
2019-03-17T01:07:02.168Z,5.26
2019-03-17T01:07:08.715Z,5.732
2019-03-17T01:07:15.317Z,5.732
2019-03-17T01:07:21.869Z,5.732
2019-03-17T01:07:28.427Z,5.732
2019-03-17T01:07:38.010Z,5.732
2019-03-17T01:07:44.759Z,5.732
2019-03-17T01:07:51.349Z,5.732
2019-03-17T01:07:57.903Z,5.732
2019-03-17T01:08:04.528Z,6.227
2019-03-17T01:08:11.247Z,6.227
2019-03-17T01:08:18.517Z,6.227
2019-03-17T01:08:25.681Z,6.227
2019-03-17T01:08:32.293Z,5.732
2019-03-17T01:08:38.978Z,5.732
2019-03-17T01:08:45.525Z,5.732
2019-03-17T01:08:52.266Z,5.732
2019-03-17T01:08:58.677Z,5.732
2019-03-17T01:09:05.107Z,6.227
2019-03-17T01:09:12.839Z,5.732
2019-03-17T01:09:19.936Z,5.732
2019-03-17T01:09:27.434Z,5.732
2019-03-17T01:09:34.904Z,5.732
2019-03-17T01:09:41.194Z,5.732
2019-03-17T01:09:47.746Z,5.732
2019-03-17T01:09:54.330Z,6.227
2019-03-17T01:10:01.035Z,6.227
2019-03-17T01:10:11.490Z,6.227
2019-03-17T01:10:17.287Z,5.732
2019-03-17T01:10:24.495Z,5.732
2019-03-17T01:10:31.454Z,5.732
2019-03-17T01:10:39.707Z,5.732
2019-03-17T01:10:47.489Z,5.732
2019-03-17T01:10:56.075Z,5.732
2019-03-17T01:11:03.581Z,5.732
2019-03-17T01:11:12.340Z,5.732
2019-03-17T01:11:19.862Z,5.732
2019-03-17T01:11:30.292Z,5.732
2019-03-17T01:11:39.173Z,5.732
2019-03-17T01:11:46.899Z,5.732
2019-03-17T01:11:55.382Z,5.732
2019-03-17T01:12:03.721Z,5.732
2019-03-17T01:12:12.546Z,5.732
2019-03-17T01:12:22.156Z,6.227
2019-03-17T01:12:30.416Z,6.227
2019-03-17T01:12:39.555Z,6.227
2019-03-17T01:12:48.701Z,6.745
2019-03-17T01:12:59.513Z,6.745
2019-03-17T01:13:06.979Z,6.745
2019-03-17T01:13:18.513Z,6.745
2019-03-17T01:13:28.754Z,6.745
2019-03-17T01:13:37.933Z,6.745
2019-03-17T01:13:47.615Z,6.227
2019-03-17T01:13:59.946Z,6.227
2019-03-17T01:14:12.512Z,6.227
2019-03-17T01:14:23.330Z,5.732
2019-03-17T01:14:33.061Z,5.732
2019-03-17T01:14:46.387Z,5.732
2019-03-17T01:14:54.370Z,5.732
2019-03-17T01:15:00.970Z,6.227
2019-03-17T01:15:11.429Z,6.227
2019-03-17T01:15:17.286Z,6.227
2019-03-17T01:15:23.839Z,6.227
2019-03-17T01:15:30.592Z,6.227
2019-03-17T01:15:37.011Z,5.732
2019-03-17T01:15:44.575Z,6.227
2019-03-17T01:15:51.805Z,6.227
2019-03-17T01:15:58.312Z,6.227
2019-03-17T01:16:04.854Z,6.227
2019-03-17T01:16:11.442Z,6.227
2019-03-17T01:16:18.070Z,5.732
2019-03-17T01:16:24.817Z,5.732
2019-03-17T01:16:31.224Z,5.732
2019-03-17T01:16:37.704Z,5.732
2019-03-17T01:16:44.201Z,5.732
2019-03-17T01:16:54.018Z,6.227
2019-03-17T01:17:00.527Z,6.227
2019-03-17T01:17:07.123Z,6.227
2019-03-17T01:17:13.661Z,6.227
2019-03-17T01:17:20.360Z,6.227
2019-03-17T01:17:26.809Z,6.227
2019-03-17T01:17:33.722Z,6.227
2019-03-17T01:17:40.016Z,6.227
2019-03-17T01:17:46.507Z,6.227
2019-03-17T01:17:53.427Z,5.732
2019-03-17T01:18:00.271Z,5.732
2019-03-17T01:18:07.867Z,5.732
2019-03-17T01:18:14.592Z,5.732
2019-03-17T01:18:21.079Z,5.732
2019-03-17T01:18:27.904Z,5.732
2019-03-17T01:18:34.537Z,5.732
2019-03-17T01:18:40.784Z,6.227
2019-03-17T01:18:48.279Z,6.227
2019-03-17T01:18:55.445Z,5.732
2019-03-17T01:19:01.992Z,5.732
2019-03-17T01:19:09.145Z,5.732
2019-03-17T01:19:15.532Z,6.227
2019-03-17T01:19:21.696Z,5.732
2019-03-17T01:19:29.453Z,5.732
2019-03-17T01:19:36.423Z,5.732
2019-03-17T01:19:43.143Z,5.732
2019-03-17T01:19:50.577Z,6.227
2019-03-17T01:20:00.524Z,6.227
2019-03-17T01:20:14.613Z,6.227
2019-03-17T01:20:20.542Z,6.227
2019-03-17T01:20:26.976Z,5.732
2019-03-17T01:20:33.546Z,5.732
2019-03-17T01:20:40.154Z,5.732
2019-03-17T01:20:46.774Z,5.732
2019-03-17T01:20:53.268Z,5.732
2019-03-17T01:21:02.720Z,6.227
2019-03-17T01:21:09.608Z,6.227
2019-03-17T01:21:16.207Z,6.227
2019-03-17T01:21:24.723Z,6.227
2019-03-17T01:21:30.913Z,6.227
2019-03-17T01:21:37.430Z,6.227
2019-03-17T01:21:43.982Z,6.227
2019-03-17T01:21:50.697Z,6.745
2019-03-17T01:21:57.111Z,6.745
2019-03-17T01:22:03.751Z,6.227
2019-03-17T01:22:10.226Z,6.227
2019-03-17T01:22:16.951Z,6.227
2019-03-17T01:22:23.635Z,5.732
2019-03-17T01:22:29.932Z,6.227
2019-03-17T01:22:36.532Z,6.227
2019-03-17T01:22:43.092Z,6.227
2019-03-17T01:22:49.657Z,6.227
2019-03-17T01:22:56.215Z,6.227
2019-03-17T01:23:02.766Z,6.227
2019-03-17T01:23:09.409Z,6.227
2019-03-17T01:23:16.018Z,6.227
2019-03-17T01:23:22.738Z,0.017
2019-03-17T01:23:29.000Z,5.732
2019-03-17T01:23:35.621Z,6.227
2019-03-17T01:23:45.069Z,6.227
2019-03-17T01:23:52.226Z,5.732
2019-03-17T01:23:58.521Z,5.732
2019-03-17T01:24:05.108Z,5.732
2019-03-17T01:24:11.719Z,5.26
2019-03-17T01:24:18.364Z,5.26
2019-03-17T01:24:24.857Z,5.26
2019-03-17T01:24:31.397Z,5.732
2019-03-17T01:24:38.115Z,5.732
2019-03-17T01:24:44.534Z,5.732
2019-03-17T01:24:51.156Z,5.732
2019-03-17T01:24:58.685Z,5.26
2019-03-17T01:25:05.788Z,5.26
2019-03-17T01:25:12.700Z,5.732
2019-03-17T01:25:19.013Z,5.732
2019-03-17T01:25:25.746Z,5.732
2019-03-17T01:25:36.508Z,5.732
2019-03-17T01:25:43.477Z,5.732
2019-03-17T01:25:50.084Z,6.227
2019-03-17T01:25:56.698Z,6.227
2019-03-17T01:26:03.212Z,6.227
2019-03-17T01:26:09.786Z,6.227
2019-03-17T01:26:18.003Z,6.227
2019-03-17T01:26:24.580Z,6.227
2019-03-17T01:26:31.075Z,6.227
2019-03-17T01:26:37.679Z,6.227
2019-03-17T01:26:44.253Z,6.745
2019-03-17T01:26:50.839Z,6.745
2019-03-17T01:26:57.403Z,6.745
2019-03-17T01:27:03.991Z,6.227
2019-03-17T01:27:10.574Z,6.227
2019-03-17T01:27:18.127Z,5.732
2019-03-17T01:27:25.178Z,5.732
2019-03-17T01:27:31.827Z,5.732
2019-03-17T01:27:38.400Z,5.732
2019-03-17T01:27:44.941Z,5.732
2019-03-17T01:27:51.607Z,6.227
2019-03-17T01:27:58.064Z,5.732
2019-03-17T01:28:04.601Z,5.732
2019-03-17T01:28:11.176Z,5.732
2019-03-17T01:28:17.762Z,5.732
2019-03-17T01:28:24.389Z,5.26
2019-03-17T01:28:30.893Z,5.26
2019-03-17T01:28:37.446Z,5.26
2019-03-17T01:28:44.027Z,5.26
2019-03-17T01:28:50.589Z,5.26
2019-03-17T01:28:57.168Z,5.26
2019-03-17T01:29:03.774Z,5.26
2019-03-17T01:29:10.341Z,5.26
2019-03-17T01:29:16.870Z,5.26
2019-03-17T01:29:24.039Z,4.81
2019-03-17T01:29:30.031Z,4.81
2019-03-17T01:29:36.619Z,5.26
2019-03-17T01:29:46.369Z,5.26
2019-03-17T01:29:52.943Z,5.26
2019-03-17T01:29:59.841Z,4.81
2019-03-17T01:30:06.151Z,5.26
2019-03-17T01:30:12.592Z,4.81
2019-03-17T01:30:19.289Z,5.26
2019-03-17T01:30:25.939Z,4.81
2019-03-17T01:30:32.320Z,4.81
2019-03-17T01:30:38.884Z,4.81
2019-03-17T01:30:45.433Z,4.81
2019-03-17T01:30:51.984Z,0.013
2019-03-17T01:30:58.596Z,4.81
2019-03-17T01:31:05.136Z,4.81
2019-03-17T01:31:11.728Z,5.26
2019-03-17T01:31:18.268Z,5.26
2019-03-17T01:31:24.856Z,5.26
2019-03-17T01:31:31.443Z,5.26
2019-03-17T01:31:38.088Z,5.26
2019-03-17T01:31:44.603Z,5.26
2019-03-17T01:31:51.147Z,5.26
2019-03-17T01:31:57.763Z,5.26
2019-03-17T01:32:05.342Z,5.26
2019-03-17T01:32:12.522Z,5.26
2019-03-17T01:32:19.241Z,0.014
2019-03-17T01:32:28.805Z,5.26
2019-03-17T01:32:35.339Z,5.26